Terminal Aerodrome Forecast
Issued by NWS

Home | Current Version | Previous Version | Text Only | Print | Product List | Glossary On
Versions: 1 2 3 4 5 6 7 8 9 10 11 12 13
768
FTUS45 KRIW 250531
TAFBPI
TAF
KBPI 250531Z 2506/2606 35008KT P6SM SCT050
     FM251600 33015G23KT P6SM VCSH SCT025 BKN045
     FM252100 34013G19KT P6SM SCT035 BKN070
     FM260100 35008KT P6SM BKN070=

USA.gov is the U.S. government's official web portal to all federal, state and local government web resources and services.